Time;durP1;ratioP1;P1;durP2;ratioP2;P2;SDS_P1;SDS_P2;PMS_P1;PMS_P2;Temp;Humidity;BMP_temperature;BMP_pressure;BME280_temperature;BME280_humidity;BME280_pressure;Samples;Min_cycle;Max_cycle;Signal;HPM_P1;HPM_P2
2020/12/10 00:01:03;;;;;;;18.75;14.90;;;;;;;;;;4975552;28;20145;-77
2020/12/10 00:03:29;;;;;;;21.30;14.57;;;1.50;99.90;;;;;;4975679;28;20062;-77
2020/12/10 00:05:55;;;;;;;18.65;14.23;;;1.40;99.90;;;;;;4974919;28;20023;-78
2020/12/10 00:08:21;;;;;;;19.88;13.73;;;;;;;;;;4975493;28;20112;-77
2020/12/10 00:10:46;;;;;;;19.00;13.98;;;1.50;99.90;;;;;;4975646;28;20086;-77
2020/12/10 00:13:12;;;;;;;18.65;13.90;;;1.40;99.90;;;;;;4974476;28;20039;-77
2020/12/10 00:15:37;;;;;;;18.10;13.63;;;1.30;99.90;;;;;;4975339;28;20074;-77
2020/12/10 00:18:03;;;;;;;20.63;14.45;;;1.60;99.90;;;;;;4974192;28;20385;-77
2020/12/10 00:20:29;;;;;;;18.95;13.55;;;1.40;99.90;;;;;;4957927;28;20030;-77
2020/12/10 00:22:54;;;;;;;18.75;14.30;;;1.50;99.90;;;;;;4973997;28;20465;-77
2020/12/10 00:25:20;;;;;;;20.75;15.80;;;1.40;99.90;;;;;;4975284;28;20034;-78
2020/12/10 00:27:45;;;;;;;21.60;15.63;;;1.40;99.90;;;;;;4973979;28;20470;-77
2020/12/10 00:30:11;;;;;;;20.08;14.07;;;1.30;99.90;;;;;;4974987;28;20073;-77
2020/12/10 00:32:37;;;;;;;20.42;14.77;;;1.00;99.90;;;;;;4974029;28;20346;-77
2020/12/10 00:35:03;;;;;;;22.52;14.10;;;1.10;99.90;;;;;;4975268;28;20525;-77
2020/12/10 00:37:29;;;;;;;22.50;16.45;;;;;;;;;;4957820;28;20035;-77
2020/12/10 00:39:55;;;;;;;21.73;14.50;;;1.40;99.90;;;;;;4974023;28;20030;-77
2020/12/10 00:42:21;;;;;;;20.70;15.05;;;1.10;99.90;;;;;;4975060;28;20022;-78
2020/12/10 00:44:46;;;;;;;19.52;14.70;;;1.40;99.90;;;;;;4973624;28;20034;-77
2020/12/10 00:47:15;;;;;;;21.73;15.68;;;1.40;99.90;;;;;;4974597;28;20086;-78
2020/12/10 00:49:41;;;;;;;20.92;15.50;;;1.20;99.90;;;;;;4973721;28;20477;-78
2020/12/10 00:52:07;;;;;;;24.73;16.35;;;;;;;;;;4973455;28;20058;-78
2020/12/10 00:54:32;;;;;;;24.17;16.42;;;1.20;99.90;;;;;;4973230;28;20425;-77
2020/12/10 00:56:58;;;;;;;22.95;16.10;;;1.10;99.90;;;;;;4957486;28;20022;-77
2020/12/10 00:59:23;;;;;;;21.35;15.60;;;1.30;99.90;;;;;;4973289;28;20027;-78
2020/12/10 01:01:49;;;;;;;23.40;15.80;;;1.30;99.90;;;;;;4974758;28;20381;-77
2020/12/10 01:04:15;;;;;;;23.55;16.45;;;1.00;99.90;;;;;;4974454;28;20035;-78
2020/12/10 01:06:40;;;;;;;21.02;15.65;;;1.40;99.90;;;;;;4973295;28;20113;-77
2020/12/10 01:09:09;;;;;;;22.98;16.25;;;1.10;99.70;;;;;;4973541;28;20026;-77
2020/12/10 01:11:35;;;;;;;22.70;16.00;;;1.30;99.90;;;;;;4974661;28;20038;-77
2020/12/10 01:14:01;;;;;;;24.20;17.63;;;1.10;99.90;;;;;;4957104;28;20027;-78
2020/12/10 01:16:26;;;;;;;22.38;15.50;;;1.20;99.90;;;;;;4972959;28;20031;-78
2020/12/10 01:18:52;;;;;;;22.48;16.42;;;1.10;99.90;;;;;;4972990;28;20474;-78
2020/12/10 01:21:27;;;;;;;23.25;15.98;;;0.90;94.00;;;;;;4972959;28;20501;-78
2020/12/10 01:23:53;;;;;;;23.05;16.15;;;1.10;99.90;;;;;;4974245;28;20031;-78
2020/12/10 01:26:19;;;;;;;23.90;16.33;;;1.00;99.90;;;;;;4973054;28;20034;-77
2020/12/10 01:28:44;;;;;;;23.83;16.52;;;1.30;99.90;;;;;;4974141;28;20031;-77
2020/12/10 01:31:12;;;;;;;22.65;16.80;;;1.20;99.90;;;;;;4973059;28;20440;-77
2020/12/10 01:33:38;;;;;;;23.42;16.30;;;;;;;;;;4974027;28;20026;-78
2020/12/10 01:36:04;;;;;;;23.77;16.88;;;0.90;99.90;;;;;;4972665;28;20105;-78
2020/12/10 01:38:29;;;;;;;24.60;16.83;;;1.50;99.90;;;;;;4973968;28;20484;-78
2020/12/10 01:40:55;;;;;;;24.33;16.33;;;;;;;;;;4974408;28;20027;-77
2020/12/10 01:43:21;;;;;;;21.80;14.90;;;1.30;99.90;;;;;;4973897;28;20015;-78
2020/12/10 01:45:47;;;;;;;21.80;16.55;;;;;;;;;;4972334;28;20098;-78
2020/12/10 01:48:12;;;;;;;21.23;15.40;;;1.30;99.90;;;;;;4972572;28;20038;-77
2020/12/10 01:50:38;;;;;;;19.42;14.30;;;1.30;99.90;;;;;;4973600;28;20033;-77
2020/12/10 01:53:03;;;;;;;24.10;16.77;;;1.50;99.90;;;;;;4956201;28;20030;-78
2020/12/10 01:55:30;;;;;;;23.25;16.50;;;1.10;99.90;;;;;;4956460;28;20045;-77
2020/12/10 01:57:56;;;;;;;22.67;16.33;;;1.30;99.90;;;;;;4972540;28;20034;-78
2020/12/10 02:00:21;;;;;;;23.27;16.00;;;1.10;99.90;;;;;;4956585;28;20027;-77
2020/12/10 02:02:54;;;;;;;23.30;15.77;;;1.40;99.90;;;;;;4972699;28;20031;-77
2020/12/10 02:05:20;;;;;;;22.83;15.90;;;1.10;99.90;;;;;;4972298;28;20054;-78
2020/12/10 02:07:45;;;;;;;22.95;15.88;;;1.40;99.90;;;;;;4972596;28;20462;-77
2020/12/10 02:10:11;;;;;;;21.30;16.25;;;1.50;99.90;;;;;;4956418;28;20109;-77
2020/12/10 02:12:39;;;;;;;21.27;15.38;;;1.50;99.90;;;;;;4972413;28;20033;-77
2020/12/10 02:15:05;;;;;;;20.27;15.73;;;1.20;99.90;;;;;;4956533;28;20389;-77
2020/12/10 02:17:30;;;;;;;21.80;16.15;;;1.30;99.90;;;;;;4956263;28;20039;-79
2020/12/10 02:19:56;;;;;;;21.92;15.68;;;1.20;99.90;;;;;;4972332;28;20033;-78
2020/12/10 02:22:21;;;;;;;22.27;15.68;;;1.40;99.90;;;;;;4973405;28;20050;-77
2020/12/10 02:24:47;;;;;;;23.30;15.75;;;;;;;;;;4956346;28;20066;-77
2020/12/10 02:27:13;;;;;;;21.70;16.38;;;;;;;;;;4972183;28;20027;-77
2020/12/10 02:29:39;;;;;;;22.70;15.25;;;1.50;99.90;;;;;;4972101;28;20034;-78
2020/12/10 02:32:04;;;;;;;24.38;17.00;;;1.20;99.90;;;;;;4972304;28;20027;-77
2020/12/10 02:34:30;;;;;;;23.92;16.30;;;1.30;99.90;;;;;;4973476;28;20027;-78
2020/12/10 02:36:55;;;;;;;23.17;16.02;;;1.30;99.90;;;;;;4956132;28;20027;-77
2020/12/10 02:39:21;;;;;;;21.13;15.32;;;1.30;99.90;;;;;;4972288;28;20030;-77
2020/12/10 02:41:47;;;;;;;25.23;15.88;;;1.40;99.90;;;;;;4974036;28;20081;-77
2020/12/10 02:44:13;;;;;;;20.75;15.63;;;;;;;;;;4959934;28;20119;-77
2020/12/10 02:46:38;;;;;;;19.65;14.68;;;1.40;99.90;;;;;;4975468;28;20046;-77
2020/12/10 02:49:04;;;;;;;19.90;14.80;;;1.30;99.90;;;;;;4975800;28;20122;-77
2020/12/10 02:51:30;;;;;;;22.55;14.57;;;1.40;99.90;;;;;;4959660;28;20527;-78
2020/12/10 02:53:55;;;;;;;18.20;14.07;;;1.20;99.90;;;;;;4975558;28;20035;-77
2020/12/10 02:56:21;;;;;;;20.58;14.02;;;;;;;;;;4976761;28;20066;-77
2020/12/10 02:58:47;;;;;;;20.48;14.98;;;1.40;99.90;;;;;;4976730;28;20034;-76
2020/12/10 03:01:13;;;;;;;19.60;14.05;;;1.30;99.90;;;;;;4976785;28;20034;-78
2020/12/10 03:03:38;;;;;;;18.45;13.77;;;1.40;99.90;;;;;;4975691;28;20030;-77
2020/12/10 03:06:08;;;;;;;18.42;13.93;;;1.20;93.50;;;;;;4959633;28;20026;-78
2020/12/10 03:08:34;;;;;;;18.17;13.73;;;1.70;99.90;;;;;;4975506;28;20027;-77
2020/12/10 03:11:00;;;;;;;20.75;14.25;;;1.20;99.90;;;;;;4959280;28;20019;-77
2020/12/10 03:13:26;;;;;;;20.65;15.68;;;1.20;99.90;;;;;;4975323;28;20492;-78
2020/12/10 03:15:51;;;;;;;22.55;17.15;;;1.30;99.90;;;;;;4975111;28;20106;-77
2020/12/10 03:18:17;;;;;;;19.52;14.20;;;1.10;99.90;;;;;;4959071;28;20031;-77
2020/12/10 03:20:43;;;;;;;19.38;13.77;;;;;;;;;;4959219;28;20536;-77
2020/12/10 03:23:09;;;;;;;18.63;13.00;;;1.20;99.90;;;;;;4976520;28;20517;-78
2020/12/10 03:25:34;;;;;;;18.40;13.00;;;1.30;99.90;;;;;;4975309;28;20077;-77
2020/12/10 03:28:00;;;;;;;18.90;12.82;;;;;;;;;;4975228;28;20031;-77
2020/12/10 03:30:26;;;;;;;18.27;12.98;;;1.50;99.90;;;;;;4976451;28;20425;-78
2020/12/10 03:32:52;;;;;;;17.65;12.52;;;;;;;;;;4976040;28;20054;-78
2020/12/10 03:35:17;;;;;;;17.48;12.77;;;1.60;99.90;;;;;;4976269;28;20059;-77
2020/12/10 03:37:43;;;;;;;17.33;12.38;;;1.20;99.90;;;;;;4976024;28;20103;-77
2020/12/10 03:40:09;;;;;;;17.45;13.15;;;1.40;99.90;;;;;;4958822;28;20030;-77
2020/12/10 03:42:35;;;;;;;20.35;13.85;;;1.00;99.90;;;;;;4974839;28;20409;-76
2020/12/10 03:45:01;;;;;;;19.17;13.88;;;;;;;;;;4975920;28;20031;-77
2020/12/10 03:47:27;;;;;;;19.40;12.95;;;;;;;;;;4974255;28;20138;-77
2020/12/10 03:49:52;;;;;;;18.45;13.32;;;1.30;99.90;;;;;;4975966;28;20426;-78
2020/12/10 03:52:18;;;;;;;18.45;12.77;;;;;;;;;;4974855;28;20069;-78
2020/12/10 03:54:44;;;;;;;17.70;13.63;;;1.10;99.90;;;;;;4975738;28;20035;-77
2020/12/10 03:57:10;;;;;;;16.75;12.23;;;;;;;;;;4975715;28;20528;-78
2020/12/10 03:59:35;;;;;;;15.40;10.68;;;1.20;99.90;;;;;;4975721;28;20483;-77
2020/12/10 04:02:01;;;;;;;14.48;10.77;;;0.80;99.90;;;;;;4958202;28;20129;-78
2020/12/10 04:04:26;;;;;;;13.80;10.48;;;1.10;99.90;;;;;;4974515;28;20037;-77
2020/12/10 04:06:52;;;;;;;13.90;10.52;;;1.20;99.90;;;;;;4974599;28;20136;-77
2020/12/10 04:09:18;;;;;;;15.75;11.05;;;;;;;;;;4975432;28;20492;-77
2020/12/10 04:11:44;;;;;;;15.45;10.77;;;1.30;99.90;;;;;;4975483;28;20023;-77
2020/12/10 04:14:09;;;;;;;14.77;10.88;;;1.00;99.90;;;;;;4975268;28;20552;-77
2020/12/10 04:16:35;;;;;;;16.42;12.05;;;1.00;99.90;;;;;;4974119;28;20027;-77
2020/12/10 04:19:01;;;;;;;15.38;10.95;;;1.10;99.90;;;;;;4958093;28;20122;-77
2020/12/10 04:21:26;;;;;;;16.85;12.15;;;1.00;94.60;;;;;;4975218;28;20081;-77
2020/12/10 04:23:52;;;;;;;17.27;11.65;;;1.30;99.90;;;;;;4975296;28;20029;-78
2020/12/10 04:26:18;;;;;;;16.27;12.10;;;;;;;;;;4958172;28;20362;-78
2020/12/10 04:28:44;;;;;;;16.77;11.77;;;0.90;99.90;;;;;;4973979;28;20058;-77
2020/12/10 04:31:10;;;;;;;16.25;11.13;;;1.20;99.90;;;;;;4973777;28;20038;-77
2020/12/10 04:33:35;;;;;;;15.25;11.27;;;1.10;96.50;;;;;;4957749;28;20060;-77
2020/12/10 04:36:01;;;;;;;12.85;9.73;;;1.00;99.90;;;;;;4973853;28;20078;-77
2020/12/10 04:38:27;;;;;;;13.23;10.02;;;0.90;99.90;;;;;;4975021;28;20054;-76
2020/12/10 04:40:52;;;;;;;14.80;10.10;;;1.00;99.90;;;;;;4973924;28;20449;-77
2020/12/10 04:43:26;;;;;;;11.82;9.95;;;;;;;;;;4973824;28;20512;-77
2020/12/10 04:45:57;;;;;;;13.68;9.25;;;1.20;99.90;;;;;;4974839;28;20050;-77
2020/12/10 04:48:25;;;;;;;13.07;9.23;;;1.10;99.90;;;;;;4957920;28;20485;-77
2020/12/10 04:50:51;;;;;;;19.58;13.75;;;0.90;99.90;;;;;;4957719;28;20033;-77
2020/12/10 04:53:17;;;;;;;10.70;8.32;;;0.80;99.90;;;;;;4957674;28;20030;-77
2020/12/10 04:55:43;;;;;;;16.08;10.77;;;0.70;99.90;;;;;;4957212;28;20505;-78
2020/12/10 04:58:08;;;;;;;22.63;15.10;;;1.00;99.90;;;;;;4973574;28;20027;-79
2020/12/10 05:00:34;;;;;;;16.00;11.73;;;0.70;99.90;;;;;;4957191;28;20034;-77
2020/12/10 05:02:59;;;;;;;13.63;10.20;;;0.80;99.90;;;;;;4973295;28;20166;-78
2020/12/10 05:05:32;;;;;;;10.18;8.02;;;0.80;97.90;;;;;;4974353;28;20153;-78
2020/12/10 05:07:59;;;;;;;12.82;9.48;;;0.90;99.90;;;;;;4957691;28;20031;-77
2020/12/10 05:10:25;;;;;;;10.52;8.38;;;0.60;99.90;;;;;;4957029;28;20165;-78
2020/12/10 05:12:51;;;;;;;10.00;7.68;;;1.10;99.90;;;;;;4956940;28;20109;-78
2020/12/10 05:15:18;;;;;;;11.13;8.30;;;0.80;99.90;;;;;;4957137;28;20039;-78
2020/12/10 05:17:44;;;;;;;11.23;8.80;;;0.60;99.90;;;;;;4973210;28;20169;-78
2020/12/10 05:20:10;;;;;;;14.70;11.00;;;;;;;;;;4957104;28;20105;-79
2020/12/10 05:22:45;;;;;;;16.15;11.32;;;0.60;99.90;;;;;;4974175;28;20019;-78
2020/12/10 05:25:11;;;;;;;14.02;10.25;;;0.70;99.90;;;;;;4957023;28;20058;-78
2020/12/10 05:27:36;;;;;;;15.07;11.50;;;0.70;99.90;;;;;;4974006;28;20030;-78
2020/12/10 05:30:02;;;;;;;14.65;10.88;;;0.50;97.50;;;;;;4973077;28;20031;-78
2020/12/10 05:32:32;;;;;;;15.57;11.95;;;0.80;94.20;;;;;;4940919;28;20429;-78
2020/12/10 05:34:57;;;;;;;15.63;11.45;;;2.70;95.00;;;;;;4972908;28;20038;-77
2020/12/10 05:37:30;;;;;;;16.33;11.70;;;1.20;94.60;;;;;;4972842;28;20035;-78
2020/12/10 05:40:03;;;;;;;16.52;12.27;;;0.50;99.90;;;;;;4972644;28;20089;-79
2020/12/10 05:42:35;;;;;;;;;;;0.60;93.40;;;;;;4973364;28;20034;-78
2020/12/10 05:45:03;;;;;;;11.23;8.85;;;0.40;93.20;;;;;;4972845;28;19916;-77
2020/12/10 05:47:29;;;;;;;11.57;8.18;;;2.30;94.70;;;;;;4956466;28;20386;-80
2020/12/10 05:49:56;;;;;;;10.10;7.90;;;2.20;94.40;;;;;;4972421;28;20038;-79
2020/12/10 05:52:23;;;;;;;8.70;6.47;;;1.40;93.90;;;;;;4972528;28;20030;-79
2020/12/10 05:54:49;;;;;;;8.05;5.70;;;;;;;;;;4956876;28;20134;-77
2020/12/10 05:57:15;;;;;;;7.78;6.10;;;0.70;97.10;;;;;;4972666;28;20042;-78
2020/12/10 05:59:40;;;;;;;7.60;6.22;;;2.00;93.30;;;;;;4956648;28;20474;-78
2020/12/10 06:02:09;;;;;;;8.15;6.22;;;0.30;99.90;;;;;;4956618;28;20082;-78
2020/12/10 06:04:35;;;;;;;7.45;6.05;;;0.50;92.60;;;;;;4972782;28;20031;-78
2020/12/10 06:07:01;;;;;;;7.65;6.10;;;;;;;;;;4973690;28;20101;-79
2020/12/10 06:09:27;;;;;;;6.57;5.53;;;0.20;97.80;;;;;;4972778;28;20037;-78
2020/12/10 06:12:13;;;;;;;7.35;6.20;;;0.90;93.40;;;;;;4956579;28;20023;-78
2020/12/10 06:14:55;;;;;;;6.65;5.30;;;1.50;93.60;;;;;;4988426;28;20043;-76
2020/12/10 06:17:21;;;;;;;6.38;5.20;;;0.10;93.20;;;;;;4975397;28;20034;-76
2020/12/10 06:19:47;;;;;;;6.32;5.10;;;;;;;;;;4977561;28;20022;-76
2020/12/10 06:22:33;;;;;;;7.10;5.50;;;0.10;91.90;;;;;;4977734;28;20034;-76
2020/12/10 06:25:02;;;;;;;6.10;4.97;;;1.80;99.70;;;;;;4977368;28;20493;-77
2020/12/10 06:27:36;;;;;;;6.00;5.32;;;0.10;93.10;;;;;;4977828;28;20635;-76
2020/12/10 06:30:15;;;;;;;6.45;5.03;;;0.10;92.00;;;;;;4996845;28;20449;-76
2020/12/10 06:32:46;;;;;;;8.93;6.18;;;0.00;92.10;;;;;;4997128;28;20031;-76
2020/12/10 06:35:33;;;;;;;8.13;6.33;;;0.10;99.90;;;;;;4995570;28;20038;-76
2020/12/10 06:37:59;;;;;;;8.63;6.53;;;-0.10;92.80;;;;;;4996653;28;20030;-76
2020/12/10 06:40:34;;;;;;;7.40;5.90;;;1.50;94.20;;;;;;4993758;28;20162;-76
2020/12/10 06:42:59;;;;;;;6.32;5.20;;;0.00;99.90;;;;;;4996102;28;20022;-76
2020/12/10 06:45:37;;;;;;;8.82;7.03;;;0.00;93.50;;;;;;4995386;28;20354;-76
2020/12/10 06:48:07;;;;;;;6.80;4.93;;;-0.10;93.40;;;;;;4993698;28;20030;-77
2020/12/10 06:50:34;;;;;;;7.05;5.75;;;-0.30;92.70;;;;;;4977447;28;20362;-76
2020/12/10 06:53:14;;;;;;;9.07;7.72;;;-0.30;92.70;;;;;;4962409;28;20121;-77
2020/12/10 06:55:55;;;;;;;8.32;5.75;;;1.20;93.50;;;;;;4976610;28;20113;-75
2020/12/10 06:59:06;;;;;;;7.60;5.90;;;-0.20;99.90;;;;;;4996313;28;20022;-76
2020/12/10 07:01:42;;;;;;;7.75;5.85;;;-0.30;93.10;;;;;;4946338;29;20036;-78
2020/12/10 07:04:31;;;;;;;9.20;5.90;;;-0.40;99.90;;;;;;4979932;28;20034;-78
2020/12/10 07:07:15;;;;;;;8.43;6.15;;;-0.30;92.90;;;;;;4996390;28;20027;-76
2020/12/10 07:10:02;;;;;;;7.18;6.03;;;-0.30;97.60;;;;;;4994990;28;20035;-75
2020/12/10 07:12:30;;;;;;;5.93;4.72;;;1.30;93.40;;;;;;4979134;28;20105;-77
2020/12/10 07:15:15;;;;;;;5.75;4.43;;;0.70;93.00;;;;;;4994717;28;20084;-76
2020/12/10 07:17:51;;;;;;;5.43;4.60;;;-0.20;99.90;;;;;;4994517;28;20031;-77
2020/12/10 07:20:18;;;;;;;7.05;4.60;;;;;;;;;;4994539;28;20030;-77
2020/12/10 07:22:54;;;;;;;6.15;4.70;;;-0.40;99.90;;;;;;4996002;28;20030;-76
2020/12/10 07:25:20;;;;;;;6.20;4.57;;;-0.30;92.40;;;;;;4962512;28;20042;-77
2020/12/10 07:27:46;;;;;;;6.15;4.93;;;-0.40;92.40;;;;;;4995591;28;20026;-77
2020/12/10 07:30:18;;;;;;;5.93;4.60;;;-0.40;92.20;;;;;;4994281;28;20034;-77
2020/12/10 07:32:44;;;;;;;8.50;5.88;;;-0.30;99.90;;;;;;4979383;28;20465;-76
2020/12/10 07:35:10;;;;;;;5.63;4.57;;;-0.40;91.90;;;;;;4978152;28;20045;-77
2020/12/10 07:38:08;;;;;;;5.93;4.72;;;-0.30;92.00;;;;;;4980063;28;20053;-78
2020/12/10 07:40:33;;;;;;;7.05;5.15;;;0.20;91.90;;;;;;4993969;28;20058;-77
2020/12/10 07:43:07;;;;;;;5.90;5.10;;;-0.20;98.70;;;;;;4995543;28;20110;-77
2020/12/10 07:45:33;;;;;;;5.35;4.60;;;-0.20;99.90;;;;;;4995244;28;20034;-77
2020/12/10 07:48:02;;;;;;;16.73;10.80;;;-0.10;98.50;;;;;;4994299;28;20042;-77
2020/12/10 07:50:29;;;;;;;12.85;7.72;;;-0.20;90.80;;;;;;4978708;28;20496;-78
2020/12/10 07:52:56;;;;;;;9.95;7.10;;;-0.20;91.30;;;;;;4977803;28;20031;-77
2020/12/10 07:55:23;;;;;;;5.68;4.80;;;0.60;91.40;;;;;;4993662;28;20029;-76
2020/12/10 07:58:00;;;;;;;7.97;6.15;;;-0.10;99.90;;;;;;4994126;28;20457;-77
2020/12/10 08:00:29;;;;;;;10.25;8.88;;;0.00;91.00;;;;;;4993760;28;20030;-78
2020/12/10 08:03:20;;;;;;;10.05;7.68;;;0.10;91.00;;;;;;4993756;28;20022;-79
2020/12/10 08:05:57;;;;;;;8.65;6.18;;;0.20;91.00;;;;;;4975381;28;20113;-78
2020/12/10 08:08:38;;;;;;;6.93;5.45;;;0.20;90.90;;;;;;4957784;28;20031;-78
2020/12/10 08:11:11;;;;;;;6.35;5.28;;;1.80;91.40;;;;;;4974165;28;20504;-77
2020/12/10 08:14:05;;;;;;;7.63;6.53;;;0.30;99.90;;;;;;4976766;28;20121;-76
2020/12/10 08:16:45;;;;;;;6.97;5.05;;;0.30;90.30;;;;;;4991705;28;20041;-75
2020/12/10 08:19:18;;;;;;;8.02;6.90;;;1.70;96.50;;;;;;4986306;28;20464;-76
2020/12/10 08:21:44;;;;;;;6.32;4.85;;;0.30;90.20;;;;;;4993819;28;20469;-76
2020/12/10 08:24:12;;;;;;;6.47;4.82;;;0.30;90.50;;;;;;4994675;28;20523;-76
2020/12/10 08:26:38;;;;;;;5.88;4.55;;;0.30;90.70;;;;;;4993789;28;20080;-75
2020/12/10 08:29:04;;;;;;;7.45;5.05;;;;;;;;;;4994755;28;20037;-76
2020/12/10 08:31:32;;;;;;;6.25;5.28;;;0.30;94.80;;;;;;4994543;28;20029;-75
2020/12/10 08:33:58;;;;;;;7.05;5.10;;;0.40;92.10;;;;;;4994306;28;20117;-75
2020/12/10 08:36:27;;;;;;;8.48;6.03;;;0.60;91.40;;;;;;4994037;28;20421;-76
2020/12/10 08:38:53;;;;;;;6.22;5.35;;;0.50;90.80;;;;;;4993304;28;20027;-76
2020/12/10 08:41:34;;;;;;;6.43;4.45;;;0.40;99.90;;;;;;4992716;28;20057;-76
2020/12/10 08:44:07;;;;;;;7.53;5.15;;;0.70;95.00;;;;;;4958048;28;20424;-75
2020/12/10 08:46:33;;;;;;;6.28;5.07;;;0.70;98.30;;;;;;4957455;28;20081;-76
2020/12/10 08:49:18;;;;;;;11.10;9.63;;;1.50;91.20;;;;;;4990443;28;20046;-76
2020/12/10 08:51:47;;;;;;;8.75;6.80;;;0.60;90.60;;;;;;4989796;28;20018;-75
2020/12/10 08:54:13;;;;;;;9.70;6.70;;;0.50;99.90;;;;;;4993804;28;20077;-75
2020/12/10 08:56:38;;;;;;;8.88;6.70;;;2.40;96.40;;;;;;4992991;28;20503;-76
2020/12/10 08:59:05;;;;;;;8.38;6.70;;;2.00;90.40;;;;;;4992503;28;20034;-76
2020/12/10 09:01:31;;;;;;;9.35;6.43;;;0.80;90.20;;;;;;4992465;28;20122;-76
2020/12/10 09:03:57;;;;;;;8.88;7.13;;;0.80;90.20;;;;;;4992835;28;20105;-76
2020/12/10 09:06:23;;;;;;;6.88;5.93;;;1.00;99.90;;;;;;4992821;28;20415;-80
2020/12/10 09:08:51;;;;;;;8.35;6.85;;;0.90;95.30;;;;;;4976406;28;20049;-81
2020/12/10 09:11:17;;;;;;;9.88;7.32;;;1.00;97.50;;;;;;4976134;28;20121;-79
2020/12/10 09:13:43;;;;;;;6.97;6.22;;;1.30;97.70;;;;;;4974861;28;20034;-79
2020/12/10 09:16:10;;;;;;;7.72;6.75;;;1.60;96.90;;;;;;4976068;28;20121;-79
2020/12/10 09:18:36;;;;;;;9.45;6.55;;;;;;;;;;4992148;28;20034;-81
2020/12/10 09:21:01;;;;;;;7.95;6.72;;;1.20;94.10;;;;;;4992442;28;20026;-81
2020/12/10 09:23:27;;;;;;;7.93;6.47;;;2.20;90.50;;;;;;4956835;28;20030;-80
2020/12/10 09:25:53;;;;;;;7.00;5.70;;;2.90;90.50;;;;;;4956637;28;20377;-80
2020/12/10 09:28:19;;;;;;;7.32;6.63;;;3.40;90.60;;;;;;4956968;28;20042;-80
2020/12/10 09:30:45;;;;;;;7.85;6.32;;;1.30;99.90;;;;;;4972740;28;20042;-79
2020/12/10 09:33:11;;;;;;;6.40;5.68;;;2.40;95.50;;;;;;4989027;28;20030;-78
2020/12/10 09:35:36;;;;;;;9.48;6.43;;;2.40;90.00;;;;;;4956501;28;20035;-78
2020/12/10 09:38:03;;;;;;;6.95;6.22;;;;;;;;;;4972871;28;20438;-80
2020/12/10 09:40:29;;;;;;;7.68;5.68;;;1.40;88.10;;;;;;4974112;28;20033;-80
2020/12/10 09:42:55;;;;;;;12.65;8.43;;;3.30;89.40;;;;;;4988942;28;20121;-80
2020/12/10 09:45:20;;;;;;;8.95;7.25;;;3.30;95.40;;;;;;4956510;28;20030;-79
2020/12/10 09:47:46;;;;;;;14.68;11.75;;;2.20;89.30;;;;;;4956440;28;20042;-79
2020/12/10 09:50:28;;;;;;;15.35;11.68;;;2.00;89.60;;;;;;4972616;28;20476;-78
2020/12/10 09:53:00;;;;;;;7.78;6.70;;;3.00;90.00;;;;;;4959206;28;20031;-80
2020/12/10 09:55:49;;;;;;;7.80;6.70;;;;;;;;;;4972837;28;20035;-79
2020/12/10 09:58:11;;;;;;;6.47;5.35;;;1.80;88.10;;;;;;4972289;28;20473;-80
2020/12/10 10:00:37;;;;;;;6.35;5.50;;;2.00;88.30;;;;;;4972622;28;20078;-79
2020/12/10 10:03:06;;;;;;;8.32;5.28;;;3.20;89.10;;;;;;4972809;28;20503;-79
2020/12/10 10:05:32;;;;;;;9.32;8.27;;;3.00;89.40;;;;;;4972616;28;20426;-80
2020/12/10 10:07:58;;;;;;;13.27;11.02;;;1.90;96.30;;;;;;4956493;28;20039;-80
2020/12/10 10:10:24;;;;;;;9.77;7.55;;;3.20;90.00;;;;;;4956328;28;20485;-78
2020/12/10 10:12:50;;;;;;;7.93;6.50;;;;;;;;;;4956054;28;20034;-79
2020/12/10 10:15:17;;;;;;;8.55;7.20;;;2.00;88.30;;;;;;4972330;28;20134;-78
2020/12/10 10:17:43;;;;;;;8.43;6.45;;;2.50;89.80;;;;;;4973705;28;20076;-80
2020/12/10 10:20:08;;;;;;;11.18;7.13;;;2.30;96.70;;;;;;4972549;28;20483;-79
2020/12/10 10:22:38;;;;;;;11.65;6.45;;;3.30;90.30;;;;;;4956109;28;20030;-79
2020/12/10 10:25:04;;;;;;;8.05;6.00;;;2.70;89.20;;;;;;4990414;28;20026;-79
2020/12/10 10:27:30;;;;;;;6.72;5.47;;;3.30;89.00;;;;;;4991680;28;20171;-80
2020/12/10 10:29:55;;;;;;;8.60;5.80;;;3.60;89.50;;;;;;4991791;28;20030;-79
2020/12/10 10:32:21;;;;;;;7.63;6.00;;;;;;;;;;4975523;28;20544;-79
2020/12/10 10:34:47;;;;;;;6.80;5.63;;;2.40;93.10;;;;;;4992883;28;20034;-79
2020/12/10 10:37:13;;;;;;;6.60;5.22;;;2.90;88.60;;;;;;4991576;28;20036;-81
2020/12/10 10:39:40;;;;;;;5.35;4.80;;;2.40;86.40;;;;;;4992819;28;20093;-79
2020/12/10 10:42:06;;;;;;;6.07;4.82;;;2.60;85.90;;;;;;4991507;28;20030;-79
2020/12/10 10:44:31;;;;;;;5.50;4.43;;;2.90;99.90;;;;;;4991491;28;20041;-79
2020/12/10 10:46:57;;;;;;;8.15;6.20;;;3.40;92.90;;;;;;4991239;28;20062;-81
2020/12/10 10:49:22;;;;;;;7.60;6.78;;;2.70;83.80;;;;;;4992535;28;20474;-79
2020/12/10 10:51:48;;;;;;;7.45;6.07;;;3.30;82.90;;;;;;4991386;28;20430;-79
2020/12/10 10:54:14;;;;;;;7.43;5.45;;;2.80;82.00;;;;;;4991784;28;20093;-79
2020/12/10 10:56:40;;;;;;;6.32;5.50;;;;;;;;;;4991092;28;20389;-79
2020/12/10 10:59:06;;;;;;;7.13;5.57;;;2.70;89.80;;;;;;4991358;28;20061;-79
2020/12/10 11:01:32;;;;;;;14.38;11.68;;;3.10;82.00;;;;;;4975144;28;20026;-79
2020/12/10 11:03:58;;;;;;;8.20;6.47;;;2.80;82.80;;;;;;4996202;28;20033;-79
2020/12/10 11:06:23;;;;;;;7.75;6.65;;;3.10;83.20;;;;;;4994442;28;20038;-82
2020/12/10 11:08:49;;;;;;;8.30;6.53;;;2.80;94.10;;;;;;4993365;28;20034;-79
2020/12/10 11:11:21;;;;;;;26.58;17.98;;;4.20;92.30;;;;;;4994137;28;20058;-79
2020/12/10 11:13:47;;;;;;;11.63;8.85;;;3.20;82.40;;;;;;4979094;28;20027;-78
2020/12/10 11:16:13;;;;;;;9.85;7.55;;;3.80;83.20;;;;;;4962543;28;20111;-79
2020/12/10 11:18:51;;;;;;;8.90;7.13;;;3.50;99.70;;;;;;4962660;28;20058;-79
2020/12/10 11:21:17;;;;;;;8.95;6.75;;;;;;;;;;4964112;28;20035;-81
2020/12/10 11:23:43;;;;;;;7.68;6.85;;;3.50;90.10;;;;;;4978490;28;20073;-80
2020/12/10 11:26:08;;;;;;;9.50;7.15;;;3.70;81.40;;;;;;4978796;28;20488;-80
2020/12/10 11:28:34;;;;;;;11.82;8.25;;;3.70;81.10;;;;;;4994844;28;20385;-80
2020/12/10 11:31:00;;;;;;;19.20;10.48;;;3.90;82.20;;;;;;4995958;28;20061;-79
2020/12/10 11:33:26;;;;;;;17.50;8.38;;;;;;;;;;4978689;28;20030;-80
2020/12/10 11:35:52;;;;;;;14.95;9.43;;;3.90;89.20;;;;;;4994518;28;20580;-80
2020/12/10 11:38:18;;;;;;;14.75;10.45;;;4.60;81.80;;;;;;4962334;28;20177;-80
2020/12/10 11:40:43;;;;;;;11.30;8.48;;;4.60;81.40;;;;;;4978497;28;20034;-80
2020/12/10 11:43:09;;;;;;;7.47;6.22;;;4.40;82.60;;;;;;4978510;28;20031;-80
2020/12/10 11:45:37;;;;;;;8.75;6.82;;;;;;;;;;4993946;28;20034;-79
2020/12/10 11:48:06;;;;;;;9.25;6.93;;;4.00;91.50;;;;;;4994272;28;20027;-79
2020/12/10 11:50:33;;;;;;;9.35;7.53;;;;;;;;;;4978260;28;20026;-79
2020/12/10 11:52:59;;;;;;;7.93;6.63;;;3.90;81.60;;;;;;4992870;28;20061;-81
2020/12/10 11:55:24;;;;;;;39.83;24.10;;;3.80;97.60;;;;;;4993838;28;20066;-79
2020/12/10 11:57:50;;;;;;;19.80;14.55;;;;;;;;;;4992094;28;20030;-80
2020/12/10 12:00:16;;;;;;;11.25;9.57;;;;;;;;;;4977802;28;20025;-81
2020/12/10 12:02:42;;;;;;;11.07;9.93;;;3.80;80.90;;;;;;4993940;28;20062;-80
2020/12/10 12:05:08;;;;;;;11.52;8.88;;;3.80;85.40;;;;;;4993500;28;20066;-80
2020/12/10 12:07:34;;;;;;;12.68;11.48;;;3.70;94.90;;;;;;4968279;28;20361;-81
2020/12/10 12:10:00;;;;;;;9.25;8.30;;;3.80;84.40;;;;;;4977272;28;20393;-80
2020/12/10 12:12:25;;;;;;;12.82;10.75;;;4.10;87.70;;;;;;4977440;28;20026;-81
2020/12/10 12:14:51;;;;;;;10.10;8.73;;;4.80;86.50;;;;;;4977806;28;20034;-80
2020/12/10 12:17:17;;;;;;;10.13;8.27;;;4.10;91.10;;;;;;5009066;28;20039;-81
2020/12/10 12:19:42;;;;;;;8.30;7.05;;;3.80;95.80;;;;;;4977280;28;20389;-80
2020/12/10 12:22:08;;;;;;;13.25;7.20;;;3.70;92.60;;;;;;4975166;28;20054;-79
2020/12/10 12:24:33;;;;;;;8.20;7.00;;;3.70;86.10;;;;;;4998649;28;20030;-82
2020/12/10 12:27:03;;;;;;;8.70;6.60;;;4.30;86.00;;;;;;4994177;28;20026;-79
2020/12/10 12:29:29;;;;;;;8.40;7.15;;;3.70;96.10;;;;;;4993951;28;20037;-80
2020/12/10 12:31:54;;;;;;;9.10;6.60;;;3.60;95.70;;;;;;4960226;28;20052;-80
2020/12/10 12:34:21;;;;;;;9.75;7.10;;;3.90;86.20;;;;;;4993111;28;20117;-79
2020/12/10 12:36:46;;;;;;;8.10;6.70;;;3.80;95.80;;;;;;4993294;28;20026;-79
2020/12/10 12:39:13;;;;;;;8.40;7.50;;;3.70;96.10;;;;;;4993441;28;20077;-78
2020/12/10 12:41:39;;;;;;;8.95;7.60;;;4.70;85.90;;;;;;4993530;28;20025;-82
2020/12/10 12:44:05;;;;;;;11.90;8.68;;;3.40;99.90;;;;;;4993596;28;20030;-81
2020/12/10 12:46:30;;;;;;;11.20;7.90;;;3.90;94.00;;;;;;4976652;28;20133;-79
2020/12/10 12:48:56;;;;;;;13.15;8.98;;;3.50;94.00;;;;;;5009854;28;20121;-79
2020/12/10 12:51:22;;;;;;;13.40;10.27;;;;;;;;;;4992412;28;20026;-80
2020/12/10 12:53:48;;;;;;;12.43;9.38;;;3.70;84.20;;;;;;4992488;28;20038;-81
2020/12/10 12:56:16;;;;;;;10.70;8.15;;;;;;;;;;4992904;28;20038;-82
2020/12/10 12:58:48;;;;;;;9.27;8.27;;;3.90;83.20;;;;;;4992332;28;20377;-79
2020/12/10 13:01:14;;;;;;;13.05;8.73;;;3.90;96.70;;;;;;4976775;28;20030;-79